sensor_id;sensor_type;location;lat;lon;timestamp;P1;durP1;ratioP1;P2;durP2;ratioP2
42972;SDS011;28610;51.214;6.962;2023-03-01T00:01:36;16.87;;;10.87;;
42972;SDS011;28610;51.214;6.962;2023-03-01T00:04:21;17.50;;;11.90;;
42972;SDS011;28610;51.214;6.962;2023-03-01T00:07:07;18.23;;;11.17;;
42972;SDS011;28610;51.214;6.962;2023-03-01T00:09:54;16.87;;;11.27;;
42972;SDS011;28610;51.214;6.962;2023-03-01T00:12:40;18.53;;;10.97;;
42972;SDS011;28610;51.214;6.962;2023-03-01T00:15:25;18.60;;;11.60;;
42972;SDS011;28610;51.214;6.962;2023-03-01T00:18:11;17.37;;;10.97;;
42972;SDS011;28610;51.214;6.962;2023-03-01T00:20:56;18.67;;;10.60;;
42972;SDS011;28610;51.214;6.962;2023-03-01T00:23:42;21.47;;;11.70;;
42972;SDS011;28610;51.214;6.962;2023-03-01T00:26:30;20.60;;;11.60;;
42972;SDS011;28610;51.214;6.962;2023-03-01T00:29:15;19.67;;;12.27;;
42972;SDS011;28610;51.214;6.962;2023-03-01T00:32:01;15.40;;;11.17;;
42972;SDS011;28610;51.214;6.962;2023-03-01T00:34:47;20.10;;;11.57;;
42972;SDS011;28610;51.214;6.962;2023-03-01T00:37:37;20.07;;;11.77;;
42972;SDS011;28610;51.214;6.962;2023-03-01T00:40:24;20.50;;;11.80;;
42972;SDS011;28610;51.214;6.962;2023-03-01T00:43:11;22.23;;;11.97;;
42972;SDS011;28610;51.214;6.962;2023-03-01T00:46:00;18.73;;;11.50;;
42972;SDS011;28610;51.214;6.962;2023-03-01T00:48:45;17.13;;;11.97;;
42972;SDS011;28610;51.214;6.962;2023-03-01T00:51:31;19.53;;;11.53;;
42972;SDS011;28610;51.214;6.962;2023-03-01T00:54:17;20.00;;;12.13;;
42972;SDS011;28610;51.214;6.962;2023-03-01T00:57:02;20.37;;;11.43;;
42972;SDS011;28610;51.214;6.962;2023-03-01T00:59:49;21.97;;;13.40;;
42972;SDS011;28610;51.214;6.962;2023-03-01T01:02:36;18.93;;;12.50;;
42972;SDS011;28610;51.214;6.962;2023-03-01T01:05:22;24.53;;;12.80;;
42972;SDS011;28610;51.214;6.962;2023-03-01T01:08:08;17.40;;;11.87;;
42972;SDS011;28610;51.214;6.962;2023-03-01T01:10:53;18.40;;;11.83;;
42972;SDS011;28610;51.214;6.962;2023-03-01T01:13:40;18.67;;;12.87;;
42972;SDS011;28610;51.214;6.962;2023-03-01T01:16:27;21.77;;;11.93;;
42972;SDS011;28610;51.214;6.962;2023-03-01T01:19:13;18.33;;;12.50;;
42972;SDS011;28610;51.214;6.962;2023-03-01T01:21:59;20.37;;;12.40;;
42972;SDS011;28610;51.214;6.962;2023-03-01T01:24:45;19.67;;;12.23;;
42972;SDS011;28610;51.214;6.962;2023-03-01T01:27:30;19.27;;;11.73;;
42972;SDS011;28610;51.214;6.962;2023-03-01T01:30:16;20.87;;;12.53;;
42972;SDS011;28610;51.214;6.962;2023-03-01T01:33:03;18.13;;;12.37;;
42972;SDS011;28610;51.214;6.962;2023-03-01T01:35:49;19.70;;;12.40;;
42972;SDS011;28610;51.214;6.962;2023-03-01T01:38:34;18.10;;;12.10;;
42972;SDS011;28610;51.214;6.962;2023-03-01T01:41:20;18.67;;;12.30;;
42972;SDS011;28610;51.214;6.962;2023-03-01T01:44:11;19.13;;;12.77;;
42972;SDS011;28610;51.214;6.962;2023-03-01T01:46:59;18.10;;;12.17;;
42972;SDS011;28610;51.214;6.962;2023-03-01T01:49:47;19.83;;;12.23;;
42972;SDS011;28610;51.214;6.962;2023-03-01T01:52:35;20.47;;;12.63;;
42972;SDS011;28610;51.214;6.962;2023-03-01T01:55:22;20.50;;;13.10;;
42972;SDS011;28610;51.214;6.962;2023-03-01T01:58:09;20.20;;;12.63;;
42972;SDS011;28610;51.214;6.962;2023-03-01T02:00:56;22.57;;;13.03;;
42972;SDS011;28610;51.214;6.962;2023-03-01T02:03:44;23.00;;;12.50;;
42972;SDS011;28610;51.214;6.962;2023-03-01T02:06:33;21.97;;;13.23;;
42972;SDS011;28610;51.214;6.962;2023-03-01T02:09:21;19.00;;;12.13;;
42972;SDS011;28610;51.214;6.962;2023-03-01T02:12:08;19.37;;;13.17;;
42972;SDS011;28610;51.214;6.962;2023-03-01T02:14:55;27.33;;;13.83;;
42972;SDS011;28610;51.214;6.962;2023-03-01T02:17:40;21.57;;;13.23;;
42972;SDS011;28610;51.214;6.962;2023-03-01T02:20:27;19.53;;;13.10;;
42972;SDS011;28610;51.214;6.962;2023-03-01T02:23:16;21.67;;;13.70;;
42972;SDS011;28610;51.214;6.962;2023-03-01T02:26:04;24.63;;;14.00;;
42972;SDS011;28610;51.214;6.962;2023-03-01T02:28:53;21.83;;;13.50;;
42972;SDS011;28610;51.214;6.962;2023-03-01T02:31:39;24.93;;;13.30;;
42972;SDS011;28610;51.214;6.962;2023-03-01T02:34:28;21.53;;;12.77;;
42972;SDS011;28610;51.214;6.962;2023-03-01T02:37:15;26.17;;;13.30;;
42972;SDS011;28610;51.214;6.962;2023-03-01T02:40:06;19.63;;;13.33;;
42972;SDS011;28610;51.214;6.962;2023-03-01T02:42:55;23.07;;;12.93;;
42972;SDS011;28610;51.214;6.962;2023-03-01T02:45:47;19.83;;;12.83;;
42972;SDS011;28610;51.214;6.962;2023-03-01T02:48:43;19.23;;;12.10;;
42972;SDS011;28610;51.214;6.962;2023-03-01T02:51:37;21.50;;;13.27;;
42972;SDS011;28610;51.214;6.962;2023-03-01T02:54:28;19.47;;;11.83;;
42972;SDS011;28610;51.214;6.962;2023-03-01T02:57:15;19.43;;;12.77;;
42972;SDS011;28610;51.214;6.962;2023-03-01T03:00:03;19.93;;;13.40;;
42972;SDS011;28610;51.214;6.962;2023-03-01T03:02:53;18.60;;;12.60;;
42972;SDS011;28610;51.214;6.962;2023-03-01T03:05:41;19.50;;;12.70;;
42972;SDS011;28610;51.214;6.962;2023-03-01T03:08:26;23.37;;;13.77;;
42972;SDS011;28610;51.214;6.962;2023-03-01T03:11:12;21.80;;;13.77;;
42972;SDS011;28610;51.214;6.962;2023-03-01T03:13:57;23.60;;;13.57;;
42972;SDS011;28610;51.214;6.962;2023-03-01T03:16:45;22.07;;;13.90;;
42972;SDS011;28610;51.214;6.962;2023-03-01T03:19:32;19.70;;;13.13;;
42972;SDS011;28610;51.214;6.962;2023-03-01T03:22:18;21.40;;;13.13;;
42972;SDS011;28610;51.214;6.962;2023-03-01T03:25:03;21.37;;;13.80;;
42972;SDS011;28610;51.214;6.962;2023-03-01T03:27:49;20.20;;;13.33;;
42972;SDS011;28610;51.214;6.962;2023-03-01T03:30:40;21.57;;;13.30;;
42972;SDS011;28610;51.214;6.962;2023-03-01T03:33:26;21.30;;;14.30;;
42972;SDS011;28610;51.214;6.962;2023-03-01T03:36:16;24.23;;;14.63;;
42972;SDS011;28610;51.214;6.962;2023-03-01T03:39:02;24.27;;;14.43;;
42972;SDS011;28610;51.214;6.962;2023-03-01T03:41:49;23.07;;;14.10;;
42972;SDS011;28610;51.214;6.962;2023-03-01T03:44:34;23.20;;;14.33;;
42972;SDS011;28610;51.214;6.962;2023-03-01T03:47:21;24.07;;;13.90;;
42972;SDS011;28610;51.214;6.962;2023-03-01T03:50:07;23.37;;;14.23;;
42972;SDS011;28610;51.214;6.962;2023-03-01T03:52:54;25.30;;;15.10;;
42972;SDS011;28610;51.214;6.962;2023-03-01T03:55:40;24.33;;;14.80;;
42972;SDS011;28610;51.214;6.962;2023-03-01T03:58:28;21.63;;;13.83;;
42972;SDS011;28610;51.214;6.962;2023-03-01T04:01:13;22.33;;;14.00;;
42972;SDS011;28610;51.214;6.962;2023-03-01T04:03:59;24.00;;;14.80;;
42972;SDS011;28610;51.214;6.962;2023-03-01T04:06:47;23.27;;;14.80;;
42972;SDS011;28610;51.214;6.962;2023-03-01T04:09:34;21.93;;;14.23;;
42972;SDS011;28610;51.214;6.962;2023-03-01T04:12:20;22.57;;;13.63;;
42972;SDS011;28610;51.214;6.962;2023-03-01T04:15:07;20.40;;;13.60;;
42972;SDS011;28610;51.214;6.962;2023-03-01T04:17:58;22.63;;;13.77;;
42972;SDS011;28610;51.214;6.962;2023-03-01T04:20:44;24.90;;;13.83;;
42972;SDS011;28610;51.214;6.962;2023-03-01T04:23:30;21.90;;;13.53;;
42972;SDS011;28610;51.214;6.962;2023-03-01T04:26:17;23.77;;;14.60;;
42972;SDS011;28610;51.214;6.962;2023-03-01T04:29:03;25.23;;;14.47;;
42972;SDS011;28610;51.214;6.962;2023-03-01T04:31:49;21.73;;;14.13;;
42972;SDS011;28610;51.214;6.962;2023-03-01T04:34:34;26.00;;;14.47;;
42972;SDS011;28610;51.214;6.962;2023-03-01T04:37:19;23.93;;;14.50;;
42972;SDS011;28610;51.214;6.962;2023-03-01T04:40:06;21.97;;;14.67;;
42972;SDS011;28610;51.214;6.962;2023-03-01T04:43:01;23.80;;;14.13;;
42972;SDS011;28610;51.214;6.962;2023-03-01T04:45:47;24.33;;;14.57;;
42972;SDS011;28610;51.214;6.962;2023-03-01T04:48:33;23.80;;;13.80;;
42972;SDS011;28610;51.214;6.962;2023-03-01T04:51:18;27.27;;;14.53;;
42972;SDS011;28610;51.214;6.962;2023-03-01T04:54:04;22.43;;;14.57;;
42972;SDS011;28610;51.214;6.962;2023-03-01T04:56:52;26.40;;;15.03;;
42972;SDS011;28610;51.214;6.962;2023-03-01T04:59:39;26.60;;;14.50;;
42972;SDS011;28610;51.214;6.962;2023-03-01T05:02:24;24.07;;;14.77;;
42972;SDS011;28610;51.214;6.962;2023-03-01T05:05:10;23.83;;;14.67;;
42972;SDS011;28610;51.214;6.962;2023-03-01T05:07:58;26.60;;;14.97;;
42972;SDS011;28610;51.214;6.962;2023-03-01T05:10:44;22.53;;;14.47;;
42972;SDS011;28610;51.214;6.962;2023-03-01T05:13:31;26.27;;;15.50;;
42972;SDS011;28610;51.214;6.962;2023-03-01T05:16:18;28.43;;;15.03;;
42972;SDS011;28610;51.214;6.962;2023-03-01T05:19:05;27.80;;;15.70;;
42972;SDS011;28610;51.214;6.962;2023-03-01T05:21:55;26.20;;;15.90;;
42972;SDS011;28610;51.214;6.962;2023-03-01T05:24:47;26.17;;;14.90;;
42972;SDS011;28610;51.214;6.962;2023-03-01T05:27:33;29.23;;;15.50;;
42972;SDS011;28610;51.214;6.962;2023-03-01T05:30:19;26.50;;;14.80;;
42972;SDS011;28610;51.214;6.962;2023-03-01T05:33:06;28.87;;;15.80;;
42972;SDS011;28610;51.214;6.962;2023-03-01T05:35:59;26.63;;;15.47;;
42972;SDS011;28610;51.214;6.962;2023-03-01T05:38:45;26.20;;;15.47;;
42972;SDS011;28610;51.214;6.962;2023-03-01T05:41:30;24.20;;;15.23;;
42972;SDS011;28610;51.214;6.962;2023-03-01T05:44:16;27.10;;;15.53;;
42972;SDS011;28610;51.214;6.962;2023-03-01T05:47:01;24.27;;;15.17;;
42972;SDS011;28610;51.214;6.962;2023-03-01T05:49:48;25.73;;;15.50;;
42972;SDS011;28610;51.214;6.962;2023-03-01T05:52:34;25.77;;;15.40;;
42972;SDS011;28610;51.214;6.962;2023-03-01T05:55:20;26.10;;;15.73;;
42972;SDS011;28610;51.214;6.962;2023-03-01T05:58:07;27.77;;;15.87;;
42972;SDS011;28610;51.214;6.962;2023-03-01T06:00:54;24.47;;;14.97;;
42972;SDS011;28610;51.214;6.962;2023-03-01T06:03:39;25.87;;;16.20;;
42972;SDS011;28610;51.214;6.962;2023-03-01T06:06:26;24.33;;;15.43;;
42972;SDS011;28610;51.214;6.962;2023-03-01T06:09:12;29.37;;;16.20;;
42972;SDS011;28610;51.214;6.962;2023-03-01T06:11:57;29.33;;;16.50;;
42972;SDS011;28610;51.214;6.962;2023-03-01T06:14:44;24.57;;;14.90;;
42972;SDS011;28610;51.214;6.962;2023-03-01T06:17:33;26.73;;;15.80;;
42972;SDS011;28610;51.214;6.962;2023-03-01T06:20:21;26.17;;;16.20;;
42972;SDS011;28610;51.214;6.962;2023-03-01T06:23:09;24.77;;;15.53;;
42972;SDS011;28610;51.214;6.962;2023-03-01T06:25:54;27.60;;;14.73;;
42972;SDS011;28610;51.214;6.962;2023-03-01T06:28:40;27.17;;;15.13;;
42972;SDS011;28610;51.214;6.962;2023-03-01T06:31:25;27.20;;;15.13;;
42972;SDS011;28610;51.214;6.962;2023-03-01T06:34:11;27.50;;;16.20;;
42972;SDS011;28610;51.214;6.962;2023-03-01T06:36:57;28.50;;;16.90;;
42972;SDS011;28610;51.214;6.962;2023-03-01T06:39:44;25.20;;;15.93;;
42972;SDS011;28610;51.214;6.962;2023-03-01T06:42:29;25.83;;;14.90;;
42972;SDS011;28610;51.214;6.962;2023-03-01T06:45:15;25.67;;;14.97;;
42972;SDS011;28610;51.214;6.962;2023-03-01T06:48:02;28.37;;;16.33;;
42972;SDS011;28610;51.214;6.962;2023-03-01T06:50:48;22.83;;;15.07;;
42972;SDS011;28610;51.214;6.962;2023-03-01T06:53:33;25.80;;;14.60;;
42972;SDS011;28610;51.214;6.962;2023-03-01T06:56:20;27.03;;;16.57;;
42972;SDS011;28610;51.214;6.962;2023-03-01T06:59:06;21.67;;;14.23;;
42972;SDS011;28610;51.214;6.962;2023-03-01T07:01:51;24.20;;;15.37;;
42972;SDS011;28610;51.214;6.962;2023-03-01T07:04:37;22.93;;;15.33;;
42972;SDS011;28610;51.214;6.962;2023-03-01T07:07:23;27.17;;;15.77;;
42972;SDS011;28610;51.214;6.962;2023-03-01T07:10:09;29.00;;;15.17;;
42972;SDS011;28610;51.214;6.962;2023-03-01T07:12:56;29.33;;;14.53;;
42972;SDS011;28610;51.214;6.962;2023-03-01T07:15:42;22.00;;;14.20;;
42972;SDS011;28610;51.214;6.962;2023-03-01T07:18:28;20.73;;;12.63;;
42972;SDS011;28610;51.214;6.962;2023-03-01T07:21:15;24.07;;;14.63;;
42972;SDS011;28610;51.214;6.962;2023-03-01T07:24:01;24.53;;;14.47;;
42972;SDS011;28610;51.214;6.962;2023-03-01T07:26:48;24.20;;;14.77;;
42972;SDS011;28610;51.214;6.962;2023-03-01T07:29:35;26.20;;;14.20;;
42972;SDS011;28610;51.214;6.962;2023-03-01T07:32:21;23.90;;;14.83;;
42972;SDS011;28610;51.214;6.962;2023-03-01T07:35:07;21.50;;;14.03;;
42972;SDS011;28610;51.214;6.962;2023-03-01T07:37:52;27.27;;;15.03;;
42972;SDS011;28610;51.214;6.962;2023-03-01T07:40:38;26.23;;;15.20;;
42972;SDS011;28610;51.214;6.962;2023-03-01T07:43:24;22.93;;;14.80;;
42972;SDS011;28610;51.214;6.962;2023-03-01T07:46:10;27.20;;;15.27;;
42972;SDS011;28610;51.214;6.962;2023-03-01T07:48:53;26.20;;;14.50;;
42972;SDS011;28610;51.214;6.962;2023-03-01T07:51:39;25.87;;;15.53;;
42972;SDS011;28610;51.214;6.962;2023-03-01T07:54:25;25.40;;;15.17;;
42972;SDS011;28610;51.214;6.962;2023-03-01T07:57:11;25.43;;;14.73;;
42972;SDS011;28610;51.214;6.962;2023-03-01T07:59:57;25.37;;;15.97;;
42972;SDS011;28610;51.214;6.962;2023-03-01T08:02:44;24.10;;;15.77;;
42972;SDS011;28610;51.214;6.962;2023-03-01T08:05:30;23.87;;;15.07;;
42972;SDS011;28610;51.214;6.962;2023-03-01T08:08:16;25.50;;;14.77;;
42972;SDS011;28610;51.214;6.962;2023-03-01T08:11:02;22.20;;;14.20;;
42972;SDS011;28610;51.214;6.962;2023-03-01T08:13:48;24.67;;;15.00;;
42972;SDS011;28610;51.214;6.962;2023-03-01T08:16:34;24.10;;;14.60;;
42972;SDS011;28610;51.214;6.962;2023-03-01T08:19:22;28.60;;;14.47;;
42972;SDS011;28610;51.214;6.962;2023-03-01T08:22:09;26.83;;;15.03;;
42972;SDS011;28610;51.214;6.962;2023-03-01T08:24:55;24.53;;;14.77;;
42972;SDS011;28610;51.214;6.962;2023-03-01T08:27:40;23.20;;;14.53;;
42972;SDS011;28610;51.214;6.962;2023-03-01T08:30:26;26.77;;;14.67;;
42972;SDS011;28610;51.214;6.962;2023-03-01T08:33:12;24.33;;;15.63;;
42972;SDS011;28610;51.214;6.962;2023-03-01T08:36:08;25.67;;;15.50;;
42972;SDS011;28610;51.214;6.962;2023-03-01T08:38:54;25.67;;;15.33;;
42972;SDS011;28610;51.214;6.962;2023-03-01T08:41:40;21.30;;;14.27;;
42972;SDS011;28610;51.214;6.962;2023-03-01T08:44:26;25.30;;;14.87;;
42972;SDS011;28610;51.214;6.962;2023-03-01T08:47:12;27.50;;;15.27;;
42972;SDS011;28610;51.214;6.962;2023-03-01T08:49:59;25.40;;;14.03;;
42972;SDS011;28610;51.214;6.962;2023-03-01T08:52:46;25.10;;;14.23;;
42972;SDS011;28610;51.214;6.962;2023-03-01T08:55:32;24.80;;;14.30;;
42972;SDS011;28610;51.214;6.962;2023-03-01T08:58:18;22.03;;;13.90;;
42972;SDS011;28610;51.214;6.962;2023-03-01T09:01:06;24.20;;;13.93;;
42972;SDS011;28610;51.214;6.962;2023-03-01T09:03:52;24.63;;;13.50;;
42972;SDS011;28610;51.214;6.962;2023-03-01T09:06:38;23.40;;;14.07;;
42972;SDS011;28610;51.214;6.962;2023-03-01T09:09:25;21.87;;;13.13;;
42972;SDS011;28610;51.214;6.962;2023-03-01T09:12:10;21.07;;;13.50;;
42972;SDS011;28610;51.214;6.962;2023-03-01T09:14:56;23.93;;;14.03;;
42972;SDS011;28610;51.214;6.962;2023-03-01T09:17:42;21.47;;;12.70;;
42972;SDS011;28610;51.214;6.962;2023-03-01T09:20:28;24.77;;;13.23;;
42972;SDS011;28610;51.214;6.962;2023-03-01T09:23:16;20.07;;;12.47;;
42972;SDS011;28610;51.214;6.962;2023-03-01T09:26:03;20.97;;;13.03;;
42972;SDS011;28610;51.214;6.962;2023-03-01T09:28:50;23.53;;;13.67;;
42972;SDS011;28610;51.214;6.962;2023-03-01T09:31:36;24.30;;;13.63;;
42972;SDS011;28610;51.214;6.962;2023-03-01T09:34:22;21.93;;;13.23;;
42972;SDS011;28610;51.214;6.962;2023-03-01T09:37:08;23.30;;;13.80;;
42972;SDS011;28610;51.214;6.962;2023-03-01T09:39:54;21.17;;;11.90;;
42972;SDS011;28610;51.214;6.962;2023-03-01T09:42:45;22.10;;;13.23;;
42972;SDS011;28610;51.214;6.962;2023-03-01T09:45:33;23.67;;;11.87;;
42972;SDS011;28610;51.214;6.962;2023-03-01T09:48:19;21.83;;;12.90;;
42972;SDS011;28610;51.214;6.962;2023-03-01T09:51:07;19.07;;;12.60;;
42972;SDS011;28610;51.214;6.962;2023-03-01T09:53:54;23.27;;;13.00;;
42972;SDS011;28610;51.214;6.962;2023-03-01T09:56:44;21.97;;;12.97;;
42972;SDS011;28610;51.214;6.962;2023-03-01T09:59:36;21.70;;;12.87;;
42972;SDS011;28610;51.214;6.962;2023-03-01T10:02:26;22.30;;;12.87;;
42972;SDS011;28610;51.214;6.962;2023-03-01T10:05:15;22.50;;;13.30;;
42972;SDS011;28610;51.214;6.962;2023-03-01T10:11:18;22.90;;;12.43;;
42972;SDS011;28610;51.214;6.962;2023-03-01T10:14:05;21.40;;;13.37;;
42972;SDS011;28610;51.214;6.962;2023-03-01T10:16:54;22.43;;;12.90;;
42972;SDS011;28610;51.214;6.962;2023-03-01T10:19:43;21.53;;;12.40;;
42972;SDS011;28610;51.214;6.962;2023-03-01T10:22:29;22.63;;;13.40;;
42972;SDS011;28610;51.214;6.962;2023-03-01T10:25:19;22.23;;;12.73;;
42972;SDS011;28610;51.214;6.962;2023-03-01T10:28:08;24.60;;;13.50;;
42972;SDS011;28610;51.214;6.962;2023-03-01T10:30:56;20.93;;;11.97;;
42972;SDS011;28610;51.214;6.962;2023-03-01T10:33:44;21.90;;;12.77;;
42972;SDS011;28610;51.214;6.962;2023-03-01T10:36:31;21.37;;;12.80;;
42972;SDS011;28610;51.214;6.962;2023-03-01T10:39:18;24.53;;;12.57;;
42972;SDS011;28610;51.214;6.962;2023-03-01T10:42:05;24.37;;;12.70;;
42972;SDS011;28610;51.214;6.962;2023-03-01T10:45:16;22.37;;;13.00;;
42972;SDS011;28610;51.214;6.962;2023-03-01T10:48:03;22.63;;;12.60;;
42972;SDS011;28610;51.214;6.962;2023-03-01T10:51:04;21.20;;;12.77;;
42972;SDS011;28610;51.214;6.962;2023-03-01T10:53:50;22.07;;;12.33;;
42972;SDS011;28610;51.214;6.962;2023-03-01T10:56:45;22.67;;;12.43;;
42972;SDS011;28610;51.214;6.962;2023-03-01T10:59:34;19.70;;;12.53;;
42972;SDS011;28610;51.214;6.962;2023-03-01T11:02:22;22.40;;;12.40;;
42972;SDS011;28610;51.214;6.962;2023-03-01T11:05:15;23.10;;;12.53;;
42972;SDS011;28610;51.214;6.962;2023-03-01T11:08:04;19.00;;;12.47;;
42972;SDS011;28610;51.214;6.962;2023-03-01T11:10:50;22.70;;;12.90;;
42972;SDS011;28610;51.214;6.962;2023-03-01T11:13:50;20.67;;;13.20;;
42972;SDS011;28610;51.214;6.962;2023-03-01T11:16:37;22.00;;;12.73;;
42972;SDS011;28610;51.214;6.962;2023-03-01T11:19:23;22.07;;;13.23;;
42972;SDS011;28610;51.214;6.962;2023-03-01T11:22:11;20.23;;;12.47;;
42972;SDS011;28610;51.214;6.962;2023-03-01T11:24:59;22.57;;;12.77;;
42972;SDS011;28610;51.214;6.962;2023-03-01T11:27:45;21.83;;;12.90;;
42972;SDS011;28610;51.214;6.962;2023-03-01T11:30:33;19.97;;;12.73;;
42972;SDS011;28610;51.214;6.962;2023-03-01T11:33:24;22.17;;;13.43;;
42972;SDS011;28610;51.214;6.962;2023-03-01T11:36:21;22.30;;;14.63;;
42972;SDS011;28610;51.214;6.962;2023-03-01T11:39:15;20.03;;;12.70;;
42972;SDS011;28610;51.214;6.962;2023-03-01T11:42:05;22.73;;;12.50;;
42972;SDS011;28610;51.214;6.962;2023-03-01T11:44:52;21.77;;;12.57;;
42972;SDS011;28610;51.214;6.962;2023-03-01T11:47:46;25.70;;;16.67;;
42972;SDS011;28610;51.214;6.962;2023-03-01T11:50:35;21.77;;;12.07;;
42972;SDS011;28610;51.214;6.962;2023-03-01T11:53:35;21.03;;;13.10;;
42972;SDS011;28610;51.214;6.962;2023-03-01T11:56:24;22.07;;;12.40;;
42972;SDS011;28610;51.214;6.962;2023-03-01T12:02:22;74.50;;;29.87;;
42972;SDS011;28610;51.214;6.962;2023-03-01T12:05:17;20.97;;;12.83;;
42972;SDS011;28610;51.214;6.962;2023-03-01T12:08:07;22.73;;;12.47;;
42972;SDS011;28610;51.214;6.962;2023-03-01T12:10:57;22.13;;;11.70;;
42972;SDS011;28610;51.214;6.962;2023-03-01T12:13:53;18.13;;;12.23;;
42972;SDS011;28610;51.214;6.962;2023-03-01T12:16:54;18.87;;;11.97;;
42972;SDS011;28610;51.214;6.962;2023-03-01T12:19:48;17.83;;;12.20;;
42972;SDS011;28610;51.214;6.962;2023-03-01T12:22:40;18.73;;;11.07;;
42972;SDS011;28610;51.214;6.962;2023-03-01T12:25:31;26.40;;;14.27;;
42972;SDS011;28610;51.214;6.962;2023-03-01T12:28:28;19.57;;;11.10;;
42972;SDS011;28610;51.214;6.962;2023-03-01T12:34:29;20.03;;;11.37;;
42972;SDS011;28610;51.214;6.962;2023-03-01T12:37:23;20.57;;;11.17;;
42972;SDS011;28610;51.214;6.962;2023-03-01T12:40:13;20.20;;;11.13;;
42972;SDS011;28610;51.214;6.962;2023-03-01T12:43:05;18.17;;;10.97;;
42972;SDS011;28610;51.214;6.962;2023-03-01T12:49:05;17.23;;;10.23;;
42972;SDS011;28610;51.214;6.962;2023-03-01T12:51:54;17.40;;;11.77;;
42972;SDS011;28610;51.214;6.962;2023-03-01T12:54:43;16.67;;;10.93;;
42972;SDS011;28610;51.214;6.962;2023-03-01T12:57:31;16.90;;;10.40;;
42972;SDS011;28610;51.214;6.962;2023-03-01T13:00:24;17.13;;;10.50;;
42972;SDS011;28610;51.214;6.962;2023-03-01T13:03:15;17.83;;;9.73;;
42972;SDS011;28610;51.214;6.962;2023-03-01T13:06:07;16.60;;;9.60;;
42972;SDS011;28610;51.214;6.962;2023-03-01T13:08:56;18.63;;;10.50;;
42972;SDS011;28610;51.214;6.962;2023-03-01T13:11:46;17.67;;;9.63;;
42972;SDS011;28610;51.214;6.962;2023-03-01T13:14:36;16.70;;;10.60;;
42972;SDS011;28610;51.214;6.962;2023-03-01T13:17:33;18.23;;;10.57;;
42972;SDS011;28610;51.214;6.962;2023-03-01T13:20:27;18.80;;;10.67;;
42972;SDS011;28610;51.214;6.962;2023-03-01T13:23:23;18.43;;;11.07;;
42972;SDS011;28610;51.214;6.962;2023-03-01T13:26:11;16.00;;;9.93;;
42972;SDS011;28610;51.214;6.962;2023-03-01T13:28:59;16.57;;;10.27;;
42972;SDS011;28610;51.214;6.962;2023-03-01T13:34:48;19.20;;;10.80;;
42972;SDS011;28610;51.214;6.962;2023-03-01T13:37:36;23.47;;;10.50;;
42972;SDS011;28610;51.214;6.962;2023-03-01T13:43:28;19.17;;;10.60;;
42972;SDS011;28610;51.214;6.962;2023-03-01T13:46:17;24.77;;;10.90;;
42972;SDS011;28610;51.214;6.962;2023-03-01T13:49:04;18.63;;;9.97;;
42972;SDS011;28610;51.214;6.962;2023-03-01T13:51:50;18.10;;;10.13;;
42972;SDS011;28610;51.214;6.962;2023-03-01T13:54:37;16.93;;;9.67;;
42972;SDS011;28610;51.214;6.962;2023-03-01T13:57:26;17.87;;;10.53;;
42972;SDS011;28610;51.214;6.962;2023-03-01T14:00:25;18.40;;;10.33;;
42972;SDS011;28610;51.214;6.962;2023-03-01T14:03:14;18.63;;;10.60;;
42972;SDS011;28610;51.214;6.962;2023-03-01T14:06:03;18.87;;;10.20;;
42972;SDS011;28610;51.214;6.962;2023-03-01T14:08:51;18.63;;;10.67;;
42972;SDS011;28610;51.214;6.962;2023-03-01T14:11:56;19.30;;;10.60;;
42972;SDS011;28610;51.214;6.962;2023-03-01T14:14:46;19.87;;;10.40;;
42972;SDS011;28610;51.214;6.962;2023-03-01T14:17:42;14.07;;;8.93;;
42972;SDS011;28610;51.214;6.962;2023-03-01T14:20:32;19.20;;;10.60;;
42972;SDS011;28610;51.214;6.962;2023-03-01T14:23:19;17.70;;;10.27;;
42972;SDS011;28610;51.214;6.962;2023-03-01T14:26:09;17.03;;;10.03;;
42972;SDS011;28610;51.214;6.962;2023-03-01T14:28:55;16.93;;;9.80;;
42972;SDS011;28610;51.214;6.962;2023-03-01T14:31:42;16.43;;;9.70;;
42972;SDS011;28610;51.214;6.962;2023-03-01T14:34:28;16.33;;;9.30;;
42972;SDS011;28610;51.214;6.962;2023-03-01T14:37:22;17.20;;;9.70;;
42972;SDS011;28610;51.214;6.962;2023-03-01T14:40:19;15.47;;;9.60;;
42972;SDS011;28610;51.214;6.962;2023-03-01T14:43:09;17.43;;;10.13;;
42972;SDS011;28610;51.214;6.962;2023-03-01T14:45:58;15.70;;;9.90;;
42972;SDS011;28610;51.214;6.962;2023-03-01T14:48:48;16.77;;;9.90;;
42972;SDS011;28610;51.214;6.962;2023-03-01T14:51:36;17.83;;;10.03;;
42972;SDS011;28610;51.214;6.962;2023-03-01T14:54:25;20.47;;;9.87;;
42972;SDS011;28610;51.214;6.962;2023-03-01T14:57:13;17.00;;;9.90;;
42972;SDS011;28610;51.214;6.962;2023-03-01T15:00:01;15.83;;;8.53;;
42972;SDS011;28610;51.214;6.962;2023-03-01T15:02:49;14.70;;;8.80;;
42972;SDS011;28610;51.214;6.962;2023-03-01T15:05:36;16.00;;;9.50;;
42972;SDS011;28610;51.214;6.962;2023-03-01T15:08:23;17.00;;;10.00;;
42972;SDS011;28610;51.214;6.962;2023-03-01T15:11:19;14.53;;;9.93;;
42972;SDS011;28610;51.214;6.962;2023-03-01T15:17:16;16.07;;;8.80;;
42972;SDS011;28610;51.214;6.962;2023-03-01T15:20:06;14.70;;;8.33;;
42972;SDS011;28610;51.214;6.962;2023-03-01T15:22:53;15.20;;;9.20;;
42972;SDS011;28610;51.214;6.962;2023-03-01T15:25:43;14.63;;;9.00;;
42972;SDS011;28610;51.214;6.962;2023-03-01T15:28:31;15.83;;;8.63;;
42972;SDS011;28610;51.214;6.962;2023-03-01T15:31:19;14.20;;;8.33;;
42972;SDS011;28610;51.214;6.962;2023-03-01T15:34:07;12.67;;;8.43;;
42972;SDS011;28610;51.214;6.962;2023-03-01T15:36:54;13.13;;;8.67;;
42972;SDS011;28610;51.214;6.962;2023-03-01T15:39:41;15.33;;;8.50;;
42972;SDS011;28610;51.214;6.962;2023-03-01T15:42:37;14.17;;;8.37;;
42972;SDS011;28610;51.214;6.962;2023-03-01T15:45:26;13.63;;;8.70;;
42972;SDS011;28610;51.214;6.962;2023-03-01T15:48:14;14.33;;;8.47;;
42972;SDS011;28610;51.214;6.962;2023-03-01T15:51:01;13.67;;;8.83;;
42972;SDS011;28610;51.214;6.962;2023-03-01T15:53:48;15.50;;;8.23;;
42972;SDS011;28610;51.214;6.962;2023-03-01T15:56:35;16.27;;;8.67;;
42972;SDS011;28610;51.214;6.962;2023-03-01T15:59:23;16.20;;;8.87;;
42972;SDS011;28610;51.214;6.962;2023-03-01T16:02:10;13.00;;;7.97;;
42972;SDS011;28610;51.214;6.962;2023-03-01T16:04:57;15.57;;;8.07;;
42972;SDS011;28610;51.214;6.962;2023-03-01T16:07:42;14.70;;;8.70;;
42972;SDS011;28610;51.214;6.962;2023-03-01T16:10:28;15.80;;;8.63;;
42972;SDS011;28610;51.214;6.962;2023-03-01T16:13:15;13.43;;;8.03;;
42972;SDS011;28610;51.214;6.962;2023-03-01T16:16:01;16.13;;;8.80;;
42972;SDS011;28610;51.214;6.962;2023-03-01T16:18:48;12.97;;;7.93;;
42972;SDS011;28610;51.214;6.962;2023-03-01T16:21:34;14.73;;;8.40;;
42972;SDS011;28610;51.214;6.962;2023-03-01T16:24:20;15.17;;;8.57;;
42972;SDS011;28610;51.214;6.962;2023-03-01T16:27:05;14.97;;;9.00;;
42972;SDS011;28610;51.214;6.962;2023-03-01T16:29:51;14.60;;;8.40;;
42972;SDS011;28610;51.214;6.962;2023-03-01T16:32:37;14.63;;;8.47;;
42972;SDS011;28610;51.214;6.962;2023-03-01T16:35:26;15.73;;;8.37;;
42972;SDS011;28610;51.214;6.962;2023-03-01T16:38:12;13.97;;;8.30;;
42972;SDS011;28610;51.214;6.962;2023-03-01T16:40:58;12.00;;;8.23;;
42972;SDS011;28610;51.214;6.962;2023-03-01T16:43:44;14.67;;;8.37;;
42972;SDS011;28610;51.214;6.962;2023-03-01T16:46:31;14.03;;;8.87;;